UHPP Airport Information

Runway Information
Runway 12 Length 735 ft width 50 ft
Elevation 0 ft Threshold 0 ft Heading 118
Runway 30 Length 735 ft Width 50 ft
Elevation 0 ft Threshold 0 ft Heading 298
Runway 16L Length 11155 ft width 197 ft
Elevation 112 ft Threshold 0 ft Heading 157
Runway 34R Length 11155 ft Width 197 ft
Elevation 131 ft Threshold 0 ft Heading 337
Runway 16R Length 8235 ft width 197 ft
Elevation 0 ft Threshold 0 ft Heading 157
Runway 34L Length 8235 ft Width 197 ft
Elevation 0 ft Threshold 0 ft Heading 337
Airport Frequencies
Type ARSA Name PETROPAVLO Frequency 119.4 MHZ
Type TWR Name PETROPAVLO Frequency 118.1 MHZ
Airport Navaids
Type NDB Name Petropavlovsk-Kamchatsky Frequency 535 KHZ
Airport Weather Information & NOTAM
ADDS - METARS form results

(0126 UTC 23 January 2019)
Data provider http://aviationweather.gov/metar/data/
 
METAR text: UHPP 230100Z 35003MPS 330V030 9999 NSC M03/M11 Q1001 R34L/720360 NOSIG RMK QFE747/0997
Conditions at: UHPP (PETROPAVLOVSK-KA, RU) observed 0100 UTC 23 January 2019
Temperature: -3.0°C (27°F)
Dewpoint: -11.0°C (12°F) [RH = 54%]
Pressure (altimeter): 29.56 inches Hg (1001.0 mb)
Winds: from the N (350 degrees) at 7 MPH (6 knots; 3.1 m/s)
Visibility: 6 or more miles (10+ km)
Ceiling: at least 12,000 feet AGL
Clouds: sky clear below 12,000 feet AGL
Weather: no significant weather observed at this time

METAR text: UHPP 230030Z 33004MPS 9999 NSC M03/M10 Q1001 R34L/720360 NOSIG RMK QFE747/0997
Conditions at: UHPP (PETROPAVLOVSK-KA, RU) observed 0030 UTC 23 January 2019
Temperature: -3.0°C (27°F)
Dewpoint: -10.0°C (14°F) [RH = 58%]
Pressure (altimeter): 29.56 inches Hg (1001.0 mb)
Winds: from the NNW (330 degrees) at 9 MPH (8 knots; 4.1 m/s)
Visibility: 6 or more miles (10+ km)
Ceiling: at least 12,000 feet AGL
Clouds: sky clear below 12,000 feet AGL
Weather: no significant weather observed at this time

Forecast for: UHPP (PETROPAVLOVSK-KA, RU)
Text: TAF UHPP 222246Z 2300/2406 36003G12MPS 9999 SCT040CB
Forecast period: 0000 UTC 23 January 2019 to 0600 UTC 24 January 2019
Forecast type: FROM: standard forecast or significant change
Winds: from the N (360 degrees) at 7 MPH (6 knots; 3.1 m/s)
gusting to 26 MPH (23 knots; 11.8 m/s)
Visibility: 6 or more miles 10+ km)
Ceiling: at least 12,000 feet AGL
Clouds: scattered clouds at 4000 feet AGL
Weather: no significant weather forecast for this period